Pietermaritzburg, South Africa
Current Conditions -  °F | °C
As of 8:00 AM on Saturday 29 Nov 2014 (Local Time) from FALE Reporting Station
Light Rain Light Rain  
Wind Chill: 70°   Ceiling: 3000
Heat Index: 70°   Visibility: 5mi
Dew Point: 63°   Wind: 6mph
Humidity: 78%   Direction: 200°SSW
Pressure: 30.15"   Gusts: NA
Location:  29.61°S, 30.39°E
Report Text: FALE 290600Z 20005KT 8000 -RA SCT020 BKN030 21/17 Q1021 TEMPO 5000
Loading
Personal Weather Stations






























Interactive Weather Map New forecast layout! Learn more

10-Day Weather Forecast

Advertisements
Track Severe Weather on mobile